Sharon, Wisconsin
Current Conditions -  °F | °C
As of 6:45 AM on Friday 19 Dec 2014 (Local Time) from KJVL Reporting Station
Overcast Overcast  
Wind Chill: 28°   Ceiling: 1100
Heat Index: 28°   Visibility: 10mi
Dew Point: 23°   Wind: 0mph
Humidity: 80%   Direction: NA
Pressure: 30.29"   Gusts: NA
Location:  42.5°N, 88.73°W
Report Text: KJVL 191245Z 00000KT 10SM OVC011 M02/M05 A3029
Loading
Personal Weather Stations






























Interactive Weather Map New forecast layout! Learn more

10-Day Weather Forecast

Advertisements
Track Severe Weather on mobile